createdAt,value
2023-04-06T00:02:22.000Z,80.07
2023-04-06T00:04:48.370Z,80.07
2023-04-06T00:07:14.738Z,80.05
2023-04-06T00:09:41.265Z,82.03
2023-04-06T00:12:07.745Z,80.83
2023-04-06T00:14:34.161Z,82.38
2023-04-06T00:17:00.792Z,83.76
2023-04-06T00:19:27.281Z,84.79
2023-04-06T00:21:53.866Z,84.17
2023-04-06T00:24:20.433Z,83.54
2023-04-06T00:26:46.938Z,83.62
2023-04-06T00:29:13.376Z,84.76
2023-04-06T00:31:39.891Z,87.21
2023-04-06T00:34:07.051Z,86.56
2023-04-06T00:36:33.500Z,87.28
2023-04-06T00:38:59.919Z,87.31
2023-04-06T00:41:26.661Z,87.38
2023-04-06T00:43:53.166Z,88.89
2023-04-06T00:46:19.637Z,89.22
2023-04-06T00:48:46.267Z,88.65
2023-04-06T00:51:12.670Z,88.40
2023-04-06T00:53:39.082Z,89.56
2023-04-06T00:56:05.981Z,88.95
2023-04-06T00:58:32.528Z,90.70
2023-04-06T01:00:59.066Z,90.27
2023-04-06T01:03:25.528Z,90.57
2023-04-06T06:45:39.778Z,100.00
2023-04-06T06:48:06.289Z,100.00
2023-04-06T06:50:32.811Z,100.00
2023-04-06T06:52:59.308Z,100.00
2023-04-06T06:55:27.591Z,100.00
2023-04-06T06:57:54.347Z,100.00
2023-04-06T07:00:23.606Z,100.00
2023-04-06T07:02:50.156Z,100.00
2023-04-06T07:07:50.801Z,100.00
2023-04-06T07:10:17.255Z,100.00
2023-04-06T07:12:43.721Z,100.00
2023-04-06T07:15:10.471Z,100.00
2023-04-06T07:17:37.001Z,100.00
2023-04-06T07:20:03.750Z,100.00
2023-04-06T07:22:30.351Z,100.00
2023-04-06T07:24:56.868Z,100.00
2023-04-06T07:27:23.343Z,100.00
2023-04-06T07:29:49.836Z,100.00
2023-04-06T07:32:16.283Z,100.00
2023-04-06T07:34:42.751Z,100.00
2023-04-06T07:37:09.155Z,100.00
2023-04-06T07:39:36.006Z,99.90
2023-04-06T07:42:02.532Z,98.88
2023-04-06T07:44:29.302Z,98.05
2023-04-06T07:46:55.925Z,96.35
2023-04-06T07:49:23.891Z,95.90
2023-04-06T07:51:50.416Z,94.90
2023-04-06T07:54:16.856Z,94.06
2023-04-06T07:56:43.280Z,92.77
2023-04-06T07:59:09.893Z,93.00
2023-04-06T08:01:36.360Z,91.46
2023-04-06T08:04:03.561Z,89.26
2023-04-06T08:06:30.394Z,88.00
2023-04-06T08:08:56.993Z,86.73
2023-04-06T08:11:23.559Z,86.30
2023-04-06T08:13:49.979Z,85.93
2023-04-06T08:16:16.649Z,83.03
2023-04-06T08:18:43.151Z,81.70
2023-04-06T08:21:09.582Z,80.80
2023-04-06T08:23:35.926Z,79.20
2023-04-06T08:26:02.369Z,78.38
2023-04-06T08:28:28.849Z,77.06
2023-04-06T08:30:55.324Z,76.17
2023-04-06T08:33:21.750Z,74.39
2023-04-06T08:35:48.242Z,74.83
2023-04-06T08:38:14.768Z,73.94
2023-04-06T08:40:41.638Z,72.81
2023-04-06T08:43:13.730Z,70.86
2023-04-06T08:45:41.640Z,71.23
2023-04-06T08:48:09.328Z,70.71
2023-04-06T08:50:37.515Z,70.53
2023-04-06T08:53:04.119Z,70.20
2023-04-06T08:55:30.968Z,69.39
2023-04-06T08:57:57.861Z,69.05
2023-04-06T09:00:26.570Z,68.94
2023-04-06T09:02:56.058Z,67.71
2023-04-06T09:05:26.155Z,66.89
2023-04-06T09:07:53.206Z,68.13
2023-04-06T09:10:19.854Z,67.99
2023-04-06T09:12:46.510Z,67.56
2023-04-06T09:15:24.582Z,64.19
2023-04-06T09:17:52.991Z,66.04
2023-04-06T09:20:29.410Z,64.45
2023-04-06T09:22:56.897Z,64.21
2023-04-06T09:25:27.364Z,63.05
2023-04-06T09:28:02.063Z,60.50
2023-04-06T09:30:28.618Z,61.66
2023-04-06T09:32:58.749Z,61.20
2023-04-06T09:35:27.764Z,60.79
2023-04-06T09:37:54.938Z,59.94
2023-04-06T09:40:23.013Z,59.48
2023-04-06T09:42:53.397Z,58.82
2023-04-06T09:45:20.146Z,58.17
2023-04-06T09:47:47.184Z,58.39
2023-04-06T09:50:15.112Z,57.25
2023-04-06T09:52:52.299Z,56.69
2023-04-06T09:55:26.940Z,54.42
2023-04-06T09:57:58.910Z,55.17
2023-04-06T10:00:27.256Z,55.68
2023-04-06T10:03:13.165Z,54.76
2023-04-06T10:06:04.239Z,52.70
2023-04-06T10:08:33.407Z,54.37
2023-04-06T10:11:01.708Z,53.03
2023-04-06T10:13:28.327Z,52.39
2023-04-06T10:15:55.980Z,52.14
2023-04-06T10:18:22.804Z,51.33
2023-04-06T10:20:54.733Z,50.78
2023-04-06T10:23:25.356Z,48.79
2023-04-06T10:25:59.243Z,48.66
2023-04-06T10:28:26.430Z,49.68
2023-04-06T10:31:00.932Z,48.30
2023-04-06T10:33:28.275Z,49.22
2023-04-06T10:35:56.532Z,48.83
2023-04-06T10:38:34.944Z,46.28
2023-04-06T10:41:06.360Z,46.97
2023-04-06T10:43:37.661Z,45.59
2023-04-06T10:46:06.256Z,45.57
2023-04-06T10:48:50.868Z,41.16
2023-04-06T10:51:19.040Z,43.94
2023-04-06T10:53:50.384Z,42.02
2023-04-06T10:56:18.956Z,42.09
2023-04-06T10:58:47.691Z,41.89
2023-04-06T11:01:16.989Z,41.51
2023-04-06T11:03:48.046Z,41.48
2023-04-06T11:06:26.387Z,39.20
2023-04-06T11:08:53.246Z,40.89
2023-04-06T11:11:21.775Z,41.12
2023-04-06T11:13:57.729Z,39.94
2023-04-06T11:16:26.715Z,40.06
2023-04-06T11:19:02.493Z,39.40
2023-04-06T11:21:48.444Z,38.46
2023-04-06T11:24:22.030Z,39.92
2023-04-06T11:26:59.493Z,38.18
2023-04-06T11:29:34.772Z,39.10
2023-04-06T11:32:04.915Z,39.64
2023-04-06T11:34:33.774Z,39.95
2023-04-06T11:37:02.891Z,40.37
2023-04-06T11:39:30.531Z,40.01
2023-04-06T11:42:05.502Z,39.71
2023-04-06T11:44:36.035Z,40.23
2023-04-06T11:47:04.131Z,40.43
2023-04-06T11:49:31.706Z,40.54
2023-04-06T11:51:59.691Z,40.42
2023-04-06T11:54:39.301Z,39.38
2023-04-06T11:57:06.451Z,40.06
2023-04-06T11:59:33.825Z,39.82
2023-04-06T12:02:00.769Z,39.75
2023-04-06T12:04:27.601Z,39.78
2023-04-06T12:06:54.090Z,39.29
2023-04-06T12:09:20.627Z,39.09
2023-04-06T12:11:47.527Z,38.69
2023-04-06T12:14:14.633Z,38.53
2023-04-06T12:16:41.635Z,38.56
2023-04-06T12:19:08.082Z,37.95
2023-04-06T12:21:38.939Z,37.99
2023-04-06T12:24:06.376Z,37.30
2023-04-06T12:26:33.534Z,37.34
2023-04-06T12:29:07.434Z,36.96
2023-04-06T12:31:35.976Z,37.04
2023-04-06T12:34:04.773Z,36.74
2023-04-06T12:36:32.231Z,36.48
2023-04-06T12:38:59.499Z,36.59
2023-04-06T12:41:26.078Z,37.14
2023-04-06T12:43:52.556Z,37.19
2023-04-06T12:46:19.393Z,37.44
2023-04-06T12:48:45.799Z,37.42
2023-04-06T12:51:12.189Z,37.54
2023-04-06T12:53:39.013Z,37.54
2023-04-06T12:56:14.120Z,38.07
2023-04-06T12:58:42.753Z,38.19
2023-04-06T13:01:09.987Z,37.95
2023-04-06T13:03:37.116Z,38.32
2023-04-06T13:06:03.910Z,38.48
2023-04-06T13:08:30.336Z,38.33
2023-04-06T13:10:57.392Z,38.48
2023-04-06T13:13:28.760Z,38.77
2023-04-06T13:15:59.184Z,39.07
2023-04-06T13:18:25.619Z,39.17
2023-04-06T13:20:52.037Z,39.87
2023-04-06T13:23:18.508Z,39.08
2023-04-06T13:25:44.947Z,38.46
2023-04-06T13:28:11.479Z,38.18
2023-04-06T13:30:38.302Z,38.06
2023-04-06T13:33:05.725Z,37.39
2023-04-06T13:35:32.219Z,37.44
2023-04-06T13:37:59.062Z,37.73
2023-04-06T13:40:25.685Z,38.21
2023-04-06T13:42:52.487Z,38.87
2023-04-06T13:45:19.197Z,39.21
2023-04-06T13:47:45.711Z,39.50
2023-04-06T13:50:12.301Z,39.68
2023-04-06T13:52:38.674Z,39.60
2023-04-06T13:55:05.634Z,40.42
2023-04-06T13:57:32.068Z,40.36
2023-04-06T13:59:58.507Z,40.86
2023-04-06T14:02:28.151Z,41.26
2023-04-06T14:04:55.254Z,41.62
2023-04-06T14:07:23.426Z,41.62
2023-04-06T14:09:50.609Z,41.75
2023-04-06T14:12:17.046Z,42.10
2023-04-06T14:14:43.596Z,42.60
2023-04-06T14:17:10.300Z,42.48
2023-04-06T14:19:37.075Z,42.28
2023-04-06T14:22:03.537Z,42.38
2023-04-06T14:24:30.489Z,42.62
2023-04-06T14:26:57.682Z,43.25
2023-04-06T14:29:24.161Z,43.70
2023-04-06T14:31:50.563Z,43.59
2023-04-06T14:34:17.880Z,43.78
2023-04-06T14:36:44.370Z,43.94
2023-04-06T14:39:11.248Z,44.05
2023-04-06T14:41:37.731Z,44.24
2023-04-06T14:44:04.736Z,44.51
2023-04-06T14:46:31.428Z,44.62
2023-04-06T14:48:59.732Z,45.33
2023-04-06T14:51:29.472Z,45.76
2023-04-06T14:53:56.117Z,46.39
2023-04-06T14:56:24.007Z,47.59
2023-04-06T14:58:51.861Z,48.13
2023-04-06T15:01:19.885Z,49.01
2023-04-06T15:03:46.687Z,49.51
2023-04-06T15:06:17.813Z,50.19
2023-04-06T15:08:45.283Z,50.98
2023-04-06T15:11:13.019Z,52.39
2023-04-06T15:13:40.894Z,52.82
2023-04-06T15:16:08.161Z,53.28
2023-04-06T15:18:35.547Z,53.46
2023-04-06T15:21:02.736Z,54.50
2023-04-06T15:23:33.686Z,55.45
2023-04-06T15:26:00.427Z,56.81
2023-04-06T15:28:27.073Z,57.66
2023-04-06T15:30:54.906Z,59.38
2023-04-06T15:33:21.901Z,60.78
2023-04-06T15:35:49.067Z,62.30
2023-04-06T15:38:15.838Z,61.79
2023-04-06T15:40:47.485Z,63.34
2023-04-06T15:43:14.680Z,62.66
2023-04-06T15:45:41.782Z,67.91
2023-04-06T15:48:09.129Z,70.02
2023-04-06T15:50:36.482Z,72.70
2023-04-06T15:53:03.038Z,75.22
2023-04-06T15:55:29.443Z,73.92
2023-04-06T15:57:56.105Z,72.37
2023-04-06T16:00:22.792Z,73.04
2023-04-06T16:02:49.448Z,72.14
2023-04-06T16:05:16.221Z,77.29
2023-04-06T16:07:43.128Z,82.74
2023-04-06T16:10:10.081Z,84.79
2023-04-06T16:12:36.543Z,86.60
2023-04-06T16:15:03.109Z,89.97
2023-04-06T16:17:29.521Z,93.10
2023-04-06T16:19:56.169Z,94.30
2023-04-06T16:22:22.582Z,99.37
2023-04-06T16:24:49.021Z,100.00
2023-04-06T16:27:15.757Z,100.00
2023-04-06T16:29:42.390Z,100.00
2023-04-06T16:32:12.211Z,100.00
2023-04-06T16:34:38.911Z,100.00
2023-04-06T16:37:05.647Z,100.00
2023-04-06T16:39:32.118Z,100.00
2023-04-06T16:41:58.980Z,100.00
2023-04-06T16:44:27.232Z,100.00
2023-04-06T16:46:53.650Z,100.00
2023-04-06T16:49:20.826Z,100.00
2023-04-06T16:51:49.592Z,100.00
2023-04-06T16:54:16.539Z,100.00
2023-04-06T16:56:42.987Z,100.00
2023-04-06T16:59:09.690Z,100.00
2023-04-06T17:01:36.281Z,100.00
2023-04-06T17:04:02.931Z,100.00
2023-04-06T17:06:29.675Z,100.00
2023-04-06T17:08:56.254Z,100.00
2023-04-06T17:11:28.719Z,100.00
2023-04-06T17:14:02.557Z,100.00
2023-04-06T17:16:29.234Z,100.00
2023-04-06T17:18:57.011Z,100.00
2023-04-06T17:21:23.815Z,100.00
2023-04-06T17:23:50.368Z,100.00
2023-04-06T17:26:16.825Z,100.00
2023-04-06T17:28:43.411Z,100.00
2023-04-06T17:31:11.314Z,100.00
2023-04-06T17:33:41.516Z,100.00
2023-04-06T17:36:10.833Z,100.00
2023-04-06T17:38:38.325Z,100.00
2023-04-06T17:41:07.414Z,100.00
2023-04-06T17:43:33.890Z,100.00
2023-04-06T17:46:00.471Z,100.00
2023-04-06T17:48:27.624Z,100.00
2023-04-06T17:50:54.016Z,100.00
2023-04-06T17:53:20.660Z,100.00
2023-04-06T17:55:47.346Z,100.00
2023-04-06T17:58:13.835Z,100.00
2023-04-06T18:00:40.274Z,100.00
2023-04-06T18:03:06.751Z,100.00
2023-04-06T18:05:33.213Z,100.00
2023-04-06T18:07:59.688Z,100.00
2023-04-06T18:10:26.319Z,100.00
2023-04-06T18:12:52.882Z,100.00
2023-04-06T18:15:19.391Z,100.00
2023-04-06T18:17:47.063Z,100.00
2023-04-06T18:20:15.088Z,100.00
2023-04-06T18:22:42.319Z,100.00
2023-04-06T18:25:09.064Z,100.00
2023-04-06T18:27:35.875Z,100.00
2023-04-06T18:30:03.372Z,100.00
2023-04-06T18:32:30.577Z,100.00
2023-04-06T18:34:58.454Z,100.00
2023-04-06T18:37:26.121Z,100.00
2023-04-06T18:39:54.387Z,100.00
2023-04-06T18:42:21.257Z,100.00
2023-04-06T18:44:48.123Z,100.00
2023-04-06T18:47:14.764Z,100.00
2023-04-06T18:49:41.356Z,100.00
2023-04-06T18:52:07.924Z,100.00
2023-04-06T18:54:34.359Z,100.00
2023-04-06T18:57:01.759Z,100.00
2023-04-06T18:59:30.342Z,100.00
2023-04-06T19:01:57.042Z,100.00
2023-04-06T19:04:23.894Z,100.00
2023-04-06T19:06:50.719Z,100.00
2023-04-06T19:09:17.419Z,100.00
2023-04-06T19:11:43.878Z,100.00
2023-04-06T19:14:10.476Z,100.00
2023-04-06T19:16:40.960Z,100.00
2023-04-06T19:19:07.712Z,100.00
2023-04-06T19:21:34.129Z,100.00
2023-04-06T19:24:01.302Z,100.00
2023-04-06T19:26:29.436Z,100.00
2023-04-06T19:28:56.200Z,100.00
2023-04-06T19:31:22.651Z,100.00
2023-04-06T19:33:49.092Z,100.00
2023-04-06T19:36:15.987Z,100.00
2023-04-06T19:38:42.759Z,100.00
2023-04-06T19:41:09.533Z,100.00
2023-04-06T19:43:36.012Z,100.00
2023-04-06T19:46:03.259Z,100.00
2023-04-06T19:48:30.394Z,100.00
2023-04-06T19:50:56.908Z,100.00
2023-04-06T19:53:23.324Z,100.00
2023-04-06T19:55:50.497Z,100.00
2023-04-06T19:58:17.176Z,100.00
2023-04-06T20:00:43.880Z,100.00
2023-04-06T20:03:10.576Z,100.00
2023-04-06T20:05:37.239Z,100.00
2023-04-06T20:08:03.664Z,100.00
2023-04-06T20:10:30.432Z,100.00
2023-04-06T20:12:58.396Z,100.00
2023-04-06T20:15:25.000Z,100.00
2023-04-06T20:17:51.506Z,100.00
2023-04-06T20:20:17.979Z,100.00
2023-04-06T20:22:44.709Z,100.00
2023-04-06T20:25:12.254Z,100.00
2023-04-06T20:27:38.777Z,100.00
2023-04-06T20:30:05.793Z,100.00
2023-04-06T20:32:33.294Z,100.00
2023-04-06T20:34:59.796Z,100.00
2023-04-06T20:37:26.351Z,100.00
2023-04-06T20:39:52.806Z,100.00
2023-04-06T20:42:21.349Z,100.00
2023-04-06T20:44:48.225Z,100.00
2023-04-06T20:47:14.747Z,100.00
2023-04-06T20:49:41.234Z,100.00
2023-04-06T20:52:07.823Z,100.00
2023-04-06T20:54:34.316Z,100.00
2023-04-06T20:57:00.984Z,100.00
2023-04-06T20:59:27.955Z,100.00
2023-04-06T21:01:54.536Z,100.00
2023-04-06T21:04:22.892Z,100.00
2023-04-06T21:06:49.887Z,100.00
2023-04-06T21:09:16.507Z,100.00
2023-04-06T21:11:42.962Z,100.00
2023-04-06T21:14:09.376Z,100.00
2023-04-06T21:16:36.553Z,100.00
2023-04-06T21:19:03.086Z,100.00
2023-04-06T21:21:29.593Z,100.00
2023-04-06T21:23:58.218Z,100.00
2023-04-06T21:26:24.763Z,100.00
2023-04-06T21:28:51.212Z,100.00
2023-04-06T21:31:19.816Z,100.00
2023-04-06T21:33:46.731Z,100.00
2023-04-06T21:36:13.506Z,100.00
2023-04-06T21:38:39.979Z,100.00
2023-04-06T21:41:07.294Z,100.00
2023-04-06T21:43:34.008Z,100.00
2023-04-06T21:46:00.446Z,100.00
2023-04-06T21:48:26.956Z,100.00
2023-04-06T21:50:53.356Z,100.00
2023-04-06T21:53:19.737Z,100.00
2023-04-06T21:55:46.775Z,100.00
2023-04-06T21:58:14.464Z,100.00
2023-04-06T22:00:41.480Z,100.00
2023-04-06T22:03:08.243Z,100.00
2023-04-06T22:05:37.097Z,100.00
2023-04-06T22:08:03.751Z,100.00
2023-04-06T22:10:30.373Z,100.00
2023-04-06T22:12:57.247Z,100.00
2023-04-06T22:15:23.669Z,100.00
2023-04-06T22:17:50.249Z,100.00
2023-04-06T22:20:16.854Z,100.00
2023-04-06T22:22:43.456Z,100.00
2023-04-06T22:25:10.039Z,100.00
2023-04-06T22:27:36.456Z,100.00
2023-04-06T22:30:04.007Z,100.00
2023-04-06T22:32:30.721Z,100.00
2023-04-06T22:34:57.193Z,100.00
2023-04-06T22:37:23.602Z,100.00
2023-04-06T22:39:50.052Z,100.00
2023-04-06T22:42:16.482Z,100.00
2023-04-06T22:44:42.902Z,100.00
2023-04-06T22:47:09.399Z,100.00
2023-04-06T22:49:35.980Z,100.00
2023-04-06T22:52:02.507Z,100.00
2023-04-06T22:54:29.094Z,100.00
2023-04-06T22:56:56.658Z,100.00
2023-04-06T22:59:23.553Z,100.00
2023-04-06T23:01:50.303Z,100.00
2023-04-06T23:04:17.087Z,100.00
2023-04-06T23:06:44.353Z,100.00
2023-04-06T23:09:11.075Z,100.00
2023-04-06T23:11:37.572Z,100.00
2023-04-06T23:14:04.041Z,100.00
2023-04-06T23:16:30.527Z,100.00
2023-04-06T23:18:57.004Z,100.00
2023-04-06T23:21:23.538Z,100.00
2023-04-06T23:23:50.064Z,100.00
2023-04-06T23:26:16.837Z,100.00
2023-04-06T23:28:43.255Z,100.00
2023-04-06T23:31:09.705Z,100.00
2023-04-06T23:33:36.126Z,100.00
2023-04-06T23:36:02.647Z,100.00
2023-04-06T23:38:29.100Z,100.00
2023-04-06T23:40:55.512Z,100.00
2023-04-06T23:43:21.938Z,100.00
2023-04-06T23:45:48.395Z,100.00
2023-04-06T23:48:14.775Z,100.00
2023-04-06T23:50:41.404Z,100.00
2023-04-06T23:53:07.929Z,100.00
2023-04-06T23:55:34.522Z,100.00
2023-04-06T23:58:01.970Z,100.00
